Terminal Aerodrome Forecast
Issued by NWS

Home | Current Version | Previous Version | Text Only | Print | Product List | Glossary On
Versions: 1 2 3 4 5 6 7 8 9 10 11 12 13 14 15 16 17 18 19 20 21 22 23 24 25 26 27 28 29 30 31 32
000
FTUS43 KMPX 211126
TAFRNH
TAF
KRNH 211126Z 2112/2212 17011KT 6SM -SHRA SCT015 OVC040
      TEMPO 2112/2114 3SM TSRA BR BKN015CB
     FM211400 18012G22KT P6SM OVC015
     FM211800 19015G25KT P6SM VCSH OVC015
     FM212100 20015G25KT P6SM VCTS OVC025CB
      TEMPO 2122/2124 3SM -TSRA BR BKN015CB
     FM220100 20011KT P6SM SCT050
     FM220600 27007KT P6SM SCT250=

USA.gov is the U.S. government's official web portal to all federal, state and local government web resources and services.